Hlavní strana
METAR-TAF:

METAR-TAF

Letiště :

Røros, Norsko

zeměpisná šířka: 62-35N, zeměpisná délka: 011-21E, výška: 626 m

Aktuální stav počasí

Zpráva byla vytvořena před 27 minutami, v 23:50 UTC
Západní vítr 4 kt, proměnlivý mezi jihojihozápadním a severním
Teplota -6°C
Vlhkost vzduchu 86%
Tlak 1023 hPa
Viditelnost 10 km a více

METAR: ENRO 212350Z AUTO 26004KT 210V350 9999NDV OVC086/// M06/M08 Q1023

Čas: 01:17 (00:17 UTC)

Předpověď počasí

Zpráva byla vytvořena před 13 hodinami a 17 minutami, v 11:00 UTC
Předpověď platná od 21 v 12 UTC do 21 v 19 UTC
Západoseverozápadní vítr 15 kt
Viditelnost 10 km a více
Žádná oblačnost pod 1500 m, nevyskytují se cumulonimby.
Dočasný
od 21 v 12 UTC do 21 v 17 UTC
Severoseverozápadní vítr 20 kt s nárazy do 30 kt

TAF: ENRO 211100Z 2112/2119 30015KT CAVOK TEMPO 2112/2117 34020G30KT

Stav a předpovědi počasí z více než 4 000 letišť (zprávy METAR a TAF).

Červené a žluté tečky na mapě představují dostupné meteorologické stanice.

Když kurzor umístíte na tečku, zobrazí se název stanice.

Pak kliknutím zobrazíte stav a předpověď počasí.

Chcete-li změnit mapu, kliknutím na zelené tlačítko se znaménkem +mapu přiblížíte, kliknutím na zelené tlačítko se znaménkem – mapu oddálíte a kliknutím na zelené šipky přejdete na sousední mapy.


METAR-TAF: